sensor_id;sensor_type;location;lat;lon;timestamp;P1;P2;P0
71794;PMS7003;59641;45.188;5.712;2022-12-10T00:01:10;16.00;16.00;10.00
71794;PMS7003;59641;45.188;5.712;2022-12-10T00:03:37;15.25;13.75;11.00
71794;PMS7003;59641;45.188;5.712;2022-12-10T00:06:04;11.75;11.50;10.00
71794;PMS7003;59641;45.188;5.712;2022-12-10T00:08:32;18.25;13.25;10.00
71794;PMS7003;59641;45.188;5.712;2022-12-10T00:10:58;18.00;14.75;11.25
71794;PMS7003;59641;45.188;5.712;2022-12-10T00:13:24;19.50;15.25;10.50
71794;PMS7003;59641;45.188;5.712;2022-12-10T00:15:49;16.50;15.25;11.00
71794;PMS7003;59641;45.188;5.712;2022-12-10T00:18:15;12.00;12.00;7.50
71794;PMS7003;59641;45.188;5.712;2022-12-10T00:20:40;16.50;14.00;9.25
71794;PMS7003;59641;45.188;5.712;2022-12-10T00:23:05;13.00;11.75;8.25
71794;PMS7003;59641;45.188;5.712;2022-12-10T00:25:31;12.00;10.75;9.25
71794;PMS7003;59641;45.188;5.712;2022-12-10T00:27:57;14.75;13.50;9.00
71794;PMS7003;59641;45.188;5.712;2022-12-10T00:30:22;9.75;8.25;6.00
71794;PMS7003;59641;45.188;5.712;2022-12-10T00:32:48;12.25;11.00;8.00
71794;PMS7003;59641;45.188;5.712;2022-12-10T00:35:13;14.50;13.75;10.25
71794;PMS7003;59641;45.188;5.712;2022-12-10T00:37:38;15.50;12.75;9.50
71794;PMS7003;59641;45.188;5.712;2022-12-10T00:40:04;19.25;12.75;9.75
71794;PMS7003;59641;45.188;5.712;2022-12-10T00:42:30;12.00;10.50;7.00
71794;PMS7003;59641;45.188;5.712;2022-12-10T00:44:58;19.50;14.00;11.25
71794;PMS7003;59641;45.188;5.712;2022-12-10T00:47:23;22.75;19.00;11.50
71794;PMS7003;59641;45.188;5.712;2022-12-10T00:49:49;17.25;16.25;10.75
71794;PMS7003;59641;45.188;5.712;2022-12-10T00:52:14;15.25;13.25;10.00
71794;PMS7003;59641;45.188;5.712;2022-12-10T00:54:39;13.75;12.00;7.00
71794;PMS7003;59641;45.188;5.712;2022-12-10T00:57:05;18.00;14.75;10.25
71794;PMS7003;59641;45.188;5.712;2022-12-10T00:59:31;19.00;16.25;11.75
71794;PMS7003;59641;45.188;5.712;2022-12-10T01:01:57;17.75;15.00;10.75
71794;PMS7003;59641;45.188;5.712;2022-12-10T01:04:22;15.50;13.00;9.75
71794;PMS7003;59641;45.188;5.712;2022-12-10T01:06:49;19.25;14.75;11.00
71794;PMS7003;59641;45.188;5.712;2022-12-10T01:09:20;19.25;18.00;12.00
71794;PMS7003;59641;45.188;5.712;2022-12-10T01:11:50;15.50;13.00;10.75
71794;PMS7003;59641;45.188;5.712;2022-12-10T01:14:21;14.25;13.25;8.50
71794;PMS7003;59641;45.188;5.712;2022-12-10T01:16:49;13.50;13.50;9.25
71794;PMS7003;59641;45.188;5.712;2022-12-10T01:19:17;19.50;13.50;10.00
71794;PMS7003;59641;45.188;5.712;2022-12-10T01:21:43;13.50;12.25;10.00
71794;PMS7003;59641;45.188;5.712;2022-12-10T01:24:09;22.50;20.00;12.25
71794;PMS7003;59641;45.188;5.712;2022-12-10T01:26:34;20.50;14.25;10.50
71794;PMS7003;59641;45.188;5.712;2022-12-10T01:29:00;24.75;18.00;12.75
71794;PMS7003;59641;45.188;5.712;2022-12-10T01:31:28;18.25;16.25;11.00
71794;PMS7003;59641;45.188;5.712;2022-12-10T01:33:57;18.25;14.75;10.50
71794;PMS7003;59641;45.188;5.712;2022-12-10T01:36:24;18.50;16.00;11.00
71794;PMS7003;59641;45.188;5.712;2022-12-10T01:38:54;15.00;13.75;11.50
71794;PMS7003;59641;45.188;5.712;2022-12-10T01:41:24;13.00;13.00;9.25
71794;PMS7003;59641;45.188;5.712;2022-12-10T01:46:17;19.00;16.75;11.00
71794;PMS7003;59641;45.188;5.712;2022-12-10T01:48:43;14.00;13.25;10.75
71794;PMS7003;59641;45.188;5.712;2022-12-10T01:51:08;17.50;14.25;9.75
71794;PMS7003;59641;45.188;5.712;2022-12-10T01:53:35;15.75;13.75;10.50
71794;PMS7003;59641;45.188;5.712;2022-12-10T01:56:01;20.00;16.50;11.25
71794;PMS7003;59641;45.188;5.712;2022-12-10T01:58:26;15.25;12.50;11.00
71794;PMS7003;59641;45.188;5.712;2022-12-10T02:01:10;10.75;9.00;5.75
71794;PMS7003;59641;45.188;5.712;2022-12-10T02:06:06;15.50;14.50;12.00
71794;PMS7003;59641;45.188;5.712;2022-12-10T02:08:48;14.75;13.75;11.00
71794;PMS7003;59641;45.188;5.712;2022-12-10T02:11:42;21.75;17.75;11.00
71794;PMS7003;59641;45.188;5.712;2022-12-10T02:17:22;14.25;13.75;10.00
71794;PMS7003;59641;45.188;5.712;2022-12-10T02:19:58;17.50;13.50;10.00
71794;PMS7003;59641;45.188;5.712;2022-12-10T02:22:29;16.00;16.00;10.50
71794;PMS7003;59641;45.188;5.712;2022-12-10T02:24:58;14.50;13.50;9.75
71794;PMS7003;59641;45.188;5.712;2022-12-10T02:27:45;17.00;15.50;11.75
71794;PMS7003;59641;45.188;5.712;2022-12-10T02:30:19;13.00;12.00;9.50
71794;PMS7003;59641;45.188;5.712;2022-12-10T02:32:45;20.25;17.50;12.25
71794;PMS7003;59641;45.188;5.712;2022-12-10T02:35:16;22.25;19.25;12.25
71794;PMS7003;59641;45.188;5.712;2022-12-10T02:37:51;16.25;16.25;11.50
71794;PMS7003;59641;45.188;5.712;2022-12-10T02:40:26;15.25;14.00;10.00
71794;PMS7003;59641;45.188;5.712;2022-12-10T02:42:58;19.25;18.25;11.25
71794;PMS7003;59641;45.188;5.712;2022-12-10T02:45:24;16.25;13.25;10.25
71794;PMS7003;59641;45.188;5.712;2022-12-10T02:47:53;19.00;16.50;12.00
71794;PMS7003;59641;45.188;5.712;2022-12-10T02:50:22;13.50;12.50;9.75
71794;PMS7003;59641;45.188;5.712;2022-12-10T02:52:48;22.67;17.00;11.00
71794;PMS7003;59641;45.188;5.712;2022-12-10T02:55:13;21.50;15.25;12.00
71794;PMS7003;59641;45.188;5.712;2022-12-10T02:57:49;15.75;13.75;10.00
71794;PMS7003;59641;45.188;5.712;2022-12-10T03:00:26;14.75;13.00;10.50
71794;PMS7003;59641;45.188;5.712;2022-12-10T03:05:35;18.25;14.25;10.00
71794;PMS7003;59641;45.188;5.712;2022-12-10T03:08:18;17.33;15.00;11.67
71794;PMS7003;59641;45.188;5.712;2022-12-10T03:11:04;16.50;13.00;10.00
71794;PMS7003;59641;45.188;5.712;2022-12-10T03:16:32;15.75;13.75;9.25
71794;PMS7003;59641;45.188;5.712;2022-12-10T03:19:03;17.75;12.75;9.25
71794;PMS7003;59641;45.188;5.712;2022-12-10T03:21:31;12.75;11.00;8.50
71794;PMS7003;59641;45.188;5.712;2022-12-10T03:24:00;11.25;9.00;8.25
71794;PMS7003;59641;45.188;5.712;2022-12-10T03:26:27;14.25;13.25;9.50
71794;PMS7003;59641;45.188;5.712;2022-12-10T03:28:54;9.00;4.50;0.00
71794;PMS7003;59641;45.188;5.712;2022-12-10T03:31:25;18.25;12.00;10.00
71794;PMS7003;59641;45.188;5.712;2022-12-10T03:33:51;15.25;13.25;8.00
71794;PMS7003;59641;45.188;5.712;2022-12-10T03:36:18;10.75;10.25;6.75
71794;PMS7003;59641;45.188;5.712;2022-12-10T03:38:44;10.75;10.00;8.00
71794;PMS7003;59641;45.188;5.712;2022-12-10T03:41:09;15.50;13.75;9.00
71794;PMS7003;59641;45.188;5.712;2022-12-10T03:43:35;16.25;13.50;9.50
71794;PMS7003;59641;45.188;5.712;2022-12-10T03:46:00;16.75;12.25;9.00
71794;PMS7003;59641;45.188;5.712;2022-12-10T03:48:26;12.50;12.25;9.00
71794;PMS7003;59641;45.188;5.712;2022-12-10T03:50:51;12.75;12.00;8.75
71794;PMS7003;59641;45.188;5.712;2022-12-10T03:53:17;12.25;12.25;9.00
71794;PMS7003;59641;45.188;5.712;2022-12-10T03:55:42;12.50;12.00;10.00
71794;PMS7003;59641;45.188;5.712;2022-12-10T03:58:07;18.00;14.25;10.00
71794;PMS7003;59641;45.188;5.712;2022-12-10T04:00:33;13.50;13.50;10.50
71794;PMS7003;59641;45.188;5.712;2022-12-10T04:02:58;14.50;13.00;9.25
71794;PMS7003;59641;45.188;5.712;2022-12-10T04:05:23;17.75;14.00;9.75
71794;PMS7003;59641;45.188;5.712;2022-12-10T04:07:49;17.50;14.50;10.75
71794;PMS7003;59641;45.188;5.712;2022-12-10T04:10:14;11.75;11.00;8.00
71794;PMS7003;59641;45.188;5.712;2022-12-10T04:12:40;13.00;13.00;9.00
71794;PMS7003;59641;45.188;5.712;2022-12-10T04:15:05;13.75;13.75;9.00
71794;PMS7003;59641;45.188;5.712;2022-12-10T04:17:50;15.75;11.50;9.00
71794;PMS7003;59641;45.188;5.712;2022-12-10T04:20:15;11.50;10.00;8.75
71794;PMS7003;59641;45.188;5.712;2022-12-10T04:22:59;12.25;10.75;6.25
71794;PMS7003;59641;45.188;5.712;2022-12-10T04:25:43;11.00;11.00;8.00
71794;PMS7003;59641;45.188;5.712;2022-12-10T04:28:27;14.25;12.00;8.75
71794;PMS7003;59641;45.188;5.712;2022-12-10T04:30:52;16.75;14.75;10.00
71794;PMS7003;59641;45.188;5.712;2022-12-10T04:33:17;9.00;9.00;6.50
71794;PMS7003;59641;45.188;5.712;2022-12-10T04:35:43;9.25;9.25;6.50
71794;PMS7003;59641;45.188;5.712;2022-12-10T04:38:08;9.75;9.75;7.50
71794;PMS7003;59641;45.188;5.712;2022-12-10T04:40:33;11.75;11.00;6.50
71794;PMS7003;59641;45.188;5.712;2022-12-10T04:42:59;14.75;12.50;8.50
71794;PMS7003;59641;45.188;5.712;2022-12-10T04:45:24;10.50;10.50;7.50
71794;PMS7003;59641;45.188;5.712;2022-12-10T04:47:49;10.00;10.00;5.75
71794;PMS7003;59641;45.188;5.712;2022-12-10T04:50:15;11.00;9.50;7.00
71794;PMS7003;59641;45.188;5.712;2022-12-10T04:52:40;10.50;8.50;7.25
71794;PMS7003;59641;45.188;5.712;2022-12-10T04:55:05;9.50;8.75;5.75
71794;PMS7003;59641;45.188;5.712;2022-12-10T04:57:31;9.25;9.00;8.00
71794;PMS7003;59641;45.188;5.712;2022-12-10T04:59:56;10.00;9.00;7.25
71794;PMS7003;59641;45.188;5.712;2022-12-10T05:02:22;10.50;10.00;7.25
71794;PMS7003;59641;45.188;5.712;2022-12-10T05:04:48;13.75;10.50;7.75
71794;PMS7003;59641;45.188;5.712;2022-12-10T05:07:14;10.00;7.75;4.25
71794;PMS7003;59641;45.188;5.712;2022-12-10T05:09:39;11.75;10.50;7.50
71794;PMS7003;59641;45.188;5.712;2022-12-10T05:12:04;10.50;9.75;7.50
71794;PMS7003;59641;45.188;5.712;2022-12-10T05:14:30;11.75;10.75;8.00
71794;PMS7003;59641;45.188;5.712;2022-12-10T05:16:55;10.00;10.00;7.50
71794;PMS7003;59641;45.188;5.712;2022-12-10T05:19:21;10.50;9.50;7.50
71794;PMS7003;59641;45.188;5.712;2022-12-10T05:21:48;15.00;10.25;6.25
71794;PMS7003;59641;45.188;5.712;2022-12-10T05:24:32;8.25;8.25;4.25
71794;PMS7003;59641;45.188;5.712;2022-12-10T05:26:58;10.75;10.75;7.50
71794;PMS7003;59641;45.188;5.712;2022-12-10T05:29:23;10.25;9.75;7.00
71794;PMS7003;59641;45.188;5.712;2022-12-10T05:31:48;7.25;5.00;4.50
71794;PMS7003;59641;45.188;5.712;2022-12-10T05:34:14;10.00;9.00;6.75
71794;PMS7003;59641;45.188;5.712;2022-12-10T05:36:39;10.50;10.50;7.75
71794;PMS7003;59641;45.188;5.712;2022-12-10T05:39:05;9.00;8.00;4.75
71794;PMS7003;59641;45.188;5.712;2022-12-10T05:41:33;10.00;8.75;5.00
71794;PMS7003;59641;45.188;5.712;2022-12-10T05:44:00;8.50;7.00;5.00
71794;PMS7003;59641;45.188;5.712;2022-12-10T05:46:27;8.75;8.00;7.00
71794;PMS7003;59641;45.188;5.712;2022-12-10T05:48:54;10.25;8.25;7.50
71794;PMS7003;59641;45.188;5.712;2022-12-10T05:51:21;9.00;9.00;5.50
71794;PMS7003;59641;45.188;5.712;2022-12-10T05:53:49;8.75;8.75;7.00
71794;PMS7003;59641;45.188;5.712;2022-12-10T05:56:16;9.25;7.75;7.00
71794;PMS7003;59641;45.188;5.712;2022-12-10T05:58:46;8.00;7.25;4.50
71794;PMS7003;59641;45.188;5.712;2022-12-10T06:01:14;7.50;7.00;7.00
71794;PMS7003;59641;45.188;5.712;2022-12-10T06:03:42;7.25;7.25;4.25
71794;PMS7003;59641;45.188;5.712;2022-12-10T06:06:07;11.50;10.00;6.25
71794;PMS7003;59641;45.188;5.712;2022-12-10T06:08:33;8.75;8.00;4.25
71794;PMS7003;59641;45.188;5.712;2022-12-10T06:11:01;8.00;8.00;7.00
71794;PMS7003;59641;45.188;5.712;2022-12-10T06:13:27;6.75;6.75;3.25
71794;PMS7003;59641;45.188;5.712;2022-12-10T06:15:52;7.25;7.00;5.75
71794;PMS7003;59641;45.188;5.712;2022-12-10T06:18:18;11.25;9.25;7.00
71794;PMS7003;59641;45.188;5.712;2022-12-10T06:20:43;9.75;8.25;6.25
71794;PMS7003;59641;45.188;5.712;2022-12-10T06:23:08;13.00;10.25;7.00
71794;PMS7003;59641;45.188;5.712;2022-12-10T06:25:37;9.25;8.25;6.25
71794;PMS7003;59641;45.188;5.712;2022-12-10T06:28:03;7.75;7.75;5.50
71794;PMS7003;59641;45.188;5.712;2022-12-10T06:30:28;8.25;7.50;5.00
71794;PMS7003;59641;45.188;5.712;2022-12-10T06:32:54;8.50;5.50;4.25
71794;PMS7003;59641;45.188;5.712;2022-12-10T06:35:20;9.25;8.50;5.25
71794;PMS7003;59641;45.188;5.712;2022-12-10T06:37:45;8.00;7.00;3.25
71794;PMS7003;59641;45.188;5.712;2022-12-10T06:40:11;7.25;7.25;4.00
71794;PMS7003;59641;45.188;5.712;2022-12-10T06:42:36;8.25;7.25;5.25
71794;PMS7003;59641;45.188;5.712;2022-12-10T06:45:02;10.50;8.50;4.25
71794;PMS7003;59641;45.188;5.712;2022-12-10T06:47:27;10.00;10.00;6.00
71794;PMS7003;59641;45.188;5.712;2022-12-10T06:49:53;9.25;8.75;5.25
71794;PMS7003;59641;45.188;5.712;2022-12-10T06:52:18;7.50;7.50;4.25
71794;PMS7003;59641;45.188;5.712;2022-12-10T06:54:44;10.00;8.75;7.00
71794;PMS7003;59641;45.188;5.712;2022-12-10T06:57:10;5.25;5.25;4.00
71794;PMS7003;59641;45.188;5.712;2022-12-10T06:59:35;9.50;7.25;4.00
71794;PMS7003;59641;45.188;5.712;2022-12-10T07:02:00;7.50;7.00;5.25
71794;PMS7003;59641;45.188;5.712;2022-12-10T07:04:26;5.50;5.50;5.25
71794;PMS7003;59641;45.188;5.712;2022-12-10T07:06:52;7.50;6.50;5.25
71794;PMS7003;59641;45.188;5.712;2022-12-10T07:09:17;6.50;4.75;3.50
71794;PMS7003;59641;45.188;5.712;2022-12-10T07:11:42;9.25;7.50;6.00
71794;PMS7003;59641;45.188;5.712;2022-12-10T07:14:11;10.00;8.75;6.50
71794;PMS7003;59641;45.188;5.712;2022-12-10T07:16:40;10.50;8.00;7.00
71794;PMS7003;59641;45.188;5.712;2022-12-10T07:19:06;14.00;12.75;8.50
71794;PMS7003;59641;45.188;5.712;2022-12-10T07:21:32;13.00;12.00;8.50
71794;PMS7003;59641;45.188;5.712;2022-12-10T07:24:04;6.00;6.00;3.25
71794;PMS7003;59641;45.188;5.712;2022-12-10T07:26:34;13.50;12.75;8.75
71794;PMS7003;59641;45.188;5.712;2022-12-10T07:29:01;13.50;12.25;8.00
71794;PMS7003;59641;45.188;5.712;2022-12-10T07:31:27;13.00;13.00;8.00
71794;PMS7003;59641;45.188;5.712;2022-12-10T07:33:53;14.25;13.25;8.25
71794;PMS7003;59641;45.188;5.712;2022-12-10T07:36:22;11.25;11.25;8.25
71794;PMS7003;59641;45.188;5.712;2022-12-10T07:38:48;9.50;9.50;8.00
71794;PMS7003;59641;45.188;5.712;2022-12-10T07:41:14;15.00;13.00;8.00
71794;PMS7003;59641;45.188;5.712;2022-12-10T07:43:41;16.75;16.75;9.25
71794;PMS7003;59641;45.188;5.712;2022-12-10T07:46:09;12.25;10.75;7.50
71794;PMS7003;59641;45.188;5.712;2022-12-10T07:48:37;13.00;12.25;8.25
71794;PMS7003;59641;45.188;5.712;2022-12-10T07:51:04;12.50;12.50;9.00
71794;PMS7003;59641;45.188;5.712;2022-12-10T07:53:30;13.00;10.00;8.75
71794;PMS7003;59641;45.188;5.712;2022-12-10T07:55:56;14.25;11.00;8.00
71794;PMS7003;59641;45.188;5.712;2022-12-10T07:58:21;13.50;13.50;9.00
71794;PMS7003;59641;45.188;5.712;2022-12-10T08:00:46;15.75;13.50;8.75
71794;PMS7003;59641;45.188;5.712;2022-12-10T08:03:12;14.00;11.25;8.50
71794;PMS7003;59641;45.188;5.712;2022-12-10T08:05:37;15.50;13.25;9.00
71794;PMS7003;59641;45.188;5.712;2022-12-10T08:08:03;15.00;14.75;8.50
71794;PMS7003;59641;45.188;5.712;2022-12-10T08:10:28;19.75;14.50;8.00
71794;PMS7003;59641;45.188;5.712;2022-12-10T08:12:54;16.67;13.33;9.67
71794;PMS7003;59641;45.188;5.712;2022-12-10T08:15:19;15.50;12.00;8.75
71794;PMS7003;59641;45.188;5.712;2022-12-10T08:17:45;17.75;15.75;10.50
71794;PMS7003;59641;45.188;5.712;2022-12-10T08:20:10;16.00;14.00;10.00
71794;PMS7003;59641;45.188;5.712;2022-12-10T08:22:35;15.75;14.25;8.50
71794;PMS7003;59641;45.188;5.712;2022-12-10T08:25:01;11.50;11.50;8.25
71794;PMS7003;59641;45.188;5.712;2022-12-10T08:27:27;19.33;13.67;10.00
71794;PMS7003;59641;45.188;5.712;2022-12-10T08:29:52;21.33;19.00;13.00
71794;PMS7003;59641;45.188;5.712;2022-12-10T08:32:18;24.33;21.67;14.00
71794;PMS7003;59641;45.188;5.712;2022-12-10T08:34:43;19.67;18.00;12.33
71794;PMS7003;59641;45.188;5.712;2022-12-10T08:37:09;20.67;19.33;13.67
71794;PMS7003;59641;45.188;5.712;2022-12-10T08:39:35;26.33;22.00;15.67
71794;PMS7003;59641;45.188;5.712;2022-12-10T08:42:00;25.00;22.00;14.33
71794;PMS7003;59641;45.188;5.712;2022-12-10T08:44:25;25.67;22.33;14.00
71794;PMS7003;59641;45.188;5.712;2022-12-10T08:46:51;28.00;25.00;14.00
71794;PMS7003;59641;45.188;5.712;2022-12-10T08:49:16;19.00;16.33;9.33
71794;PMS7003;59641;45.188;5.712;2022-12-10T08:51:42;21.67;18.67;13.67
71794;PMS7003;59641;45.188;5.712;2022-12-10T08:54:07;26.67;24.67;15.67
71794;PMS7003;59641;45.188;5.712;2022-12-10T08:56:32;28.67;23.33;16.67
71794;PMS7003;59641;45.188;5.712;2022-12-10T08:58:58;24.33;20.33;14.00
71794;PMS7003;59641;45.188;5.712;2022-12-10T09:01:23;28.33;22.67;14.33
71794;PMS7003;59641;45.188;5.712;2022-12-10T09:03:49;22.00;21.00;14.00
71794;PMS7003;59641;45.188;5.712;2022-12-10T09:06:16;24.33;23.00;15.00
71794;PMS7003;59641;45.188;5.712;2022-12-10T09:08:43;20.33;17.67;9.33
71794;PMS7003;59641;45.188;5.712;2022-12-10T09:13:58;27.33;20.33;14.67
71794;PMS7003;59641;45.188;5.712;2022-12-10T09:16:42;24.67;19.33;13.67
71794;PMS7003;59641;45.188;5.712;2022-12-10T09:19:07;25.00;22.67;14.67
71794;PMS7003;59641;45.188;5.712;2022-12-10T09:21:34;27.00;25.33;15.67
71794;PMS7003;59641;45.188;5.712;2022-12-10T09:24:00;24.67;22.33;15.00
71794;PMS7003;59641;45.188;5.712;2022-12-10T09:26:26;21.33;16.67;9.67
71794;PMS7003;59641;45.188;5.712;2022-12-10T09:28:51;19.33;15.33;9.33
71794;PMS7003;59641;45.188;5.712;2022-12-10T09:31:18;25.33;23.67;14.00
71794;PMS7003;59641;45.188;5.712;2022-12-10T09:33:45;25.33;23.67;15.00
71794;PMS7003;59641;45.188;5.712;2022-12-10T09:36:11;25.00;24.67;14.00
71794;PMS7003;59641;45.188;5.712;2022-12-10T09:38:38;30.00;22.67;15.00
71794;PMS7003;59641;45.188;5.712;2022-12-10T09:43:52;24.67;24.67;16.67
71794;PMS7003;59641;45.188;5.712;2022-12-10T09:51:44;30.67;23.67;16.67
71794;PMS7003;59641;45.188;5.712;2022-12-10T09:54:20;36.00;24.67;15.33
71794;PMS7003;59641;45.188;5.712;2022-12-10T09:56:50;36.67;25.00;16.67
71794;PMS7003;59641;45.188;5.712;2022-12-10T09:59:40;29.00;18.67;10.67
71794;PMS7003;59641;45.188;5.712;2022-12-10T10:05:09;33.33;30.00;19.00
71794;PMS7003;59641;45.188;5.712;2022-12-10T10:07:39;32.67;27.33;17.33
71794;PMS7003;59641;45.188;5.712;2022-12-10T10:10:16;32.33;30.00;20.00
71794;PMS7003;59641;45.188;5.712;2022-12-10T10:12:46;37.00;31.00;19.67
71794;PMS7003;59641;45.188;5.712;2022-12-10T10:15:14;30.33;27.33;17.67
71794;PMS7003;59641;45.188;5.712;2022-12-10T10:17:41;37.33;31.33;19.00
71794;PMS7003;59641;45.188;5.712;2022-12-10T10:20:10;36.33;33.67;20.33
71794;PMS7003;59641;45.188;5.712;2022-12-10T10:22:37;33.67;31.00;19.00
71794;PMS7003;59641;45.188;5.712;2022-12-10T10:25:04;45.00;34.67;20.33
71794;PMS7003;59641;45.188;5.712;2022-12-10T10:27:31;40.67;36.00;20.00
71794;PMS7003;59641;45.188;5.712;2022-12-10T10:29:58;33.00;31.67;19.00
71794;PMS7003;59641;45.188;5.712;2022-12-10T10:32:43;47.33;35.33;21.67
71794;PMS7003;59641;45.188;5.712;2022-12-10T10:35:21;41.33;33.00;21.33
71794;PMS7003;59641;45.188;5.712;2022-12-10T10:38:04;44.00;35.00;22.00
71794;PMS7003;59641;45.188;5.712;2022-12-10T10:43:18;34.33;31.33;20.00
71794;PMS7003;59641;45.188;5.712;2022-12-10T10:48:41;38.00;34.00;21.33
71794;PMS7003;59641;45.188;5.712;2022-12-10T10:56:16;42.00;32.33;19.00
71794;PMS7003;59641;45.188;5.712;2022-12-10T10:58:57;53.33;36.00;23.00
71794;PMS7003;59641;45.188;5.712;2022-12-10T11:04:48;47.33;38.33;24.67
71794;PMS7003;59641;45.188;5.712;2022-12-10T11:07:22;37.33;31.67;21.33
71794;PMS7003;59641;45.188;5.712;2022-12-10T11:09:58;43.67;36.00;23.67
71794;PMS7003;59641;45.188;5.712;2022-12-10T11:14:55;48.67;34.33;20.67
71794;PMS7003;59641;45.188;5.712;2022-12-10T11:17:22;35.67;31.33;19.00
71794;PMS7003;59641;45.188;5.712;2022-12-10T11:22:27;36.00;31.00;20.00
71794;PMS7003;59641;45.188;5.712;2022-12-10T11:24:54;38.33;33.00;20.00
71794;PMS7003;59641;45.188;5.712;2022-12-10T11:30:02;39.00;36.00;20.67
71794;PMS7003;59641;45.188;5.712;2022-12-10T11:38:32;43.33;32.00;21.00
71794;PMS7003;59641;45.188;5.712;2022-12-10T11:41:26;46.00;37.00;21.67
71794;PMS7003;59641;45.188;5.712;2022-12-10T11:46:36;43.67;36.00;21.00
71794;PMS7003;59641;45.188;5.712;2022-12-10T11:49:34;42.00;32.00;20.00
71794;PMS7003;59641;45.188;5.712;2022-12-10T11:52:47;36.67;31.33;18.00
71794;PMS7003;59641;45.188;5.712;2022-12-10T11:54:57;35.00;28.67;17.33
71794;PMS7003;59641;45.188;5.712;2022-12-10T11:57:43;41.33;34.67;20.00
71794;PMS7003;59641;45.188;5.712;2022-12-10T12:00:52;36.67;33.33;16.67
71794;PMS7003;59641;45.188;5.712;2022-12-10T12:15:19;34.00;29.00;19.00
71794;PMS7003;59641;45.188;5.712;2022-12-10T12:17:52;34.33;31.00;15.33
71794;PMS7003;59641;45.188;5.712;2022-12-10T12:20:34;37.67;29.67;17.33
71794;PMS7003;59641;45.188;5.712;2022-12-10T12:23:23;44.00;34.00;22.00
71794;PMS7003;59641;45.188;5.712;2022-12-10T12:25:56;40.00;29.33;17.67
71794;PMS7003;59641;45.188;5.712;2022-12-10T12:28:27;27.67;21.67;13.33
71794;PMS7003;59641;45.188;5.712;2022-12-10T12:31:20;33.33;31.00;20.67
71794;PMS7003;59641;45.188;5.712;2022-12-10T12:33:55;35.00;27.00;18.33
71794;PMS7003;59641;45.188;5.712;2022-12-10T12:36:26;31.00;25.00;15.00
71794;PMS7003;59641;45.188;5.712;2022-12-10T12:39:02;41.67;30.67;17.33
71794;PMS7003;59641;45.188;5.712;2022-12-10T12:42:06;37.00;32.67;19.33
71794;PMS7003;59641;45.188;5.712;2022-12-10T12:50:00;35.00;29.00;17.67
71794;PMS7003;59641;45.188;5.712;2022-12-10T12:52:35;34.00;27.00;15.67
71794;PMS7003;59641;45.188;5.712;2022-12-10T12:55:17;46.33;31.67;18.00
71794;PMS7003;59641;45.188;5.712;2022-12-10T12:57:49;27.00;27.00;17.33
71794;PMS7003;59641;45.188;5.712;2022-12-10T13:00:21;34.67;26.33;18.00
71794;PMS7003;59641;45.188;5.712;2022-12-10T13:02:53;33.00;28.67;16.00
71794;PMS7003;59641;45.188;5.712;2022-12-10T13:05:40;30.67;29.67;17.67
71794;PMS7003;59641;45.188;5.712;2022-12-10T13:13:36;32.00;28.33;18.00
71794;PMS7003;59641;45.188;5.712;2022-12-10T13:19:23;34.00;26.67;18.33
71794;PMS7003;59641;45.188;5.712;2022-12-10T13:30:00;24.67;24.67;17.33
71794;PMS7003;59641;45.188;5.712;2022-12-10T13:37:35;32.33;27.33;17.00
71794;PMS7003;59641;45.188;5.712;2022-12-10T13:40:42;34.00;27.67;15.00
71794;PMS7003;59641;45.188;5.712;2022-12-10T13:43:28;29.33;26.67;15.33
71794;PMS7003;59641;45.188;5.712;2022-12-10T13:48:52;29.33;22.67;11.00
71794;PMS7003;59641;45.188;5.712;2022-12-10T14:00:18;24.00;21.33;13.00
71794;PMS7003;59641;45.188;5.712;2022-12-10T14:03:07;23.00;20.67;15.67
71794;PMS7003;59641;45.188;5.712;2022-12-10T14:08:34;21.33;16.67;9.00
71794;PMS7003;59641;45.188;5.712;2022-12-10T14:11:02;30.00;22.00;14.67
71794;PMS7003;59641;45.188;5.712;2022-12-10T14:13:36;27.33;25.33;15.33
71794;PMS7003;59641;45.188;5.712;2022-12-10T14:16:12;28.00;26.00;17.00
71794;PMS7003;59641;45.188;5.712;2022-12-10T14:18:41;29.67;25.33;15.33
71794;PMS7003;59641;45.188;5.712;2022-12-10T14:21:08;25.00;21.67;15.00
71794;PMS7003;59641;45.188;5.712;2022-12-10T14:23:39;27.00;22.67;14.67
71794;PMS7003;59641;45.188;5.712;2022-12-10T14:26:31;26.33;22.67;14.33
71794;PMS7003;59641;45.188;5.712;2022-12-10T14:29:08;27.00;20.00;13.33
71794;PMS7003;59641;45.188;5.712;2022-12-10T14:31:44;24.67;22.00;12.00
71794;PMS7003;59641;45.188;5.712;2022-12-10T14:34:14;24.33;21.33;14.00
71794;PMS7003;59641;45.188;5.712;2022-12-10T14:36:47;19.00;18.33;9.00
71794;PMS7003;59641;45.188;5.712;2022-12-10T14:39:15;31.00;25.67;15.33
71794;PMS7003;59641;45.188;5.712;2022-12-10T14:41:47;22.00;17.67;13.67
71794;PMS7003;59641;45.188;5.712;2022-12-10T14:44:16;26.00;21.67;12.67
71794;PMS7003;59641;45.188;5.712;2022-12-10T14:46:43;23.67;20.33;14.00
71794;PMS7003;59641;45.188;5.712;2022-12-10T14:49:13;25.33;21.33;15.33
71794;PMS7003;59641;45.188;5.712;2022-12-10T14:51:41;24.00;21.67;15.00
71794;PMS7003;59641;45.188;5.712;2022-12-10T14:54:22;25.67;22.00;15.00
71794;PMS7003;59641;45.188;5.712;2022-12-10T14:56:50;30.33;21.00;11.00
71794;PMS7003;59641;45.188;5.712;2022-12-10T14:59:19;22.33;20.67;14.00
71794;PMS7003;59641;45.188;5.712;2022-12-10T15:01:52;24.00;23.00;13.33
71794;PMS7003;59641;45.188;5.712;2022-12-10T15:04:21;27.00;21.67;15.00
71794;PMS7003;59641;45.188;5.712;2022-12-10T15:06:49;28.00;21.67;13.33
71794;PMS7003;59641;45.188;5.712;2022-12-10T15:09:16;32.67;27.67;15.00
71794;PMS7003;59641;45.188;5.712;2022-12-10T15:11:45;32.67;25.67;13.33
71794;PMS7003;59641;45.188;5.712;2022-12-10T15:14:20;27.67;27.33;14.33
71794;PMS7003;59641;45.188;5.712;2022-12-10T15:16:48;17.33;14.33;10.67
71794;PMS7003;59641;45.188;5.712;2022-12-10T15:19:18;26.00;25.00;15.00
71794;PMS7003;59641;45.188;5.712;2022-12-10T15:21:47;25.33;22.00;14.00
71794;PMS7003;59641;45.188;5.712;2022-12-10T15:24:18;19.50;18.75;11.75
71794;PMS7003;59641;45.188;5.712;2022-12-10T15:26:51;30.67;24.00;13.67
71794;PMS7003;59641;45.188;5.712;2022-12-10T15:31:55;22.25;19.50;12.25
71794;PMS7003;59641;45.188;5.712;2022-12-10T15:34:25;26.67;23.33;15.00
71794;PMS7003;59641;45.188;5.712;2022-12-10T15:36:53;24.00;20.33;13.33
71794;PMS7003;59641;45.188;5.712;2022-12-10T15:41:58;23.67;20.33;12.33
71794;PMS7003;59641;45.188;5.712;2022-12-10T15:44:32;25.25;23.75;15.00
71794;PMS7003;59641;45.188;5.712;2022-12-10T15:49:50;21.67;16.33;12.00
71794;PMS7003;59641;45.188;5.712;2022-12-10T15:52:19;29.33;23.67;15.00
71794;PMS7003;59641;45.188;5.712;2022-12-10T15:54:46;25.00;20.33;13.00
71794;PMS7003;59641;45.188;5.712;2022-12-10T15:59:46;28.00;24.67;15.00
71794;PMS7003;59641;45.188;5.712;2022-12-10T16:02:26;22.33;19.00;11.00
71794;PMS7003;59641;45.188;5.712;2022-12-10T16:07:40;29.67;24.67;16.67
71794;PMS7003;59641;45.188;5.712;2022-12-10T16:10:06;27.67;20.33;14.00
71794;PMS7003;59641;45.188;5.712;2022-12-10T16:12:32;29.33;24.67;14.67